createdAt,value
2023-01-10T00:02:26.419Z,1.00
2023-01-10T00:04:53.229Z,1.17
2023-01-10T00:07:19.922Z,1.17
2023-01-10T00:09:46.602Z,1.20
2023-01-10T00:12:31.942Z,2.20
2023-01-10T00:14:58.590Z,2.13
2023-01-10T00:17:25.223Z,1.90
2023-01-10T00:19:51.894Z,1.40
2023-01-10T00:22:21.362Z,1.30
2023-01-10T00:24:48.189Z,1.70
2023-01-10T00:27:20.628Z,1.20
2023-01-10T00:29:47.303Z,1.17
2023-01-10T00:32:13.893Z,1.00
2023-01-10T00:34:40.704Z,1.00
2023-01-10T00:37:07.310Z,0.90
2023-01-10T00:39:34.002Z,1.17
2023-01-10T00:42:19.174Z,0.87
2023-01-10T00:44:46.873Z,1.50
2023-01-10T00:47:13.808Z,1.13
2023-01-10T00:49:40.960Z,0.97
2023-01-10T00:52:07.910Z,1.03
2023-01-10T00:54:34.565Z,1.47
2023-01-10T00:57:01.297Z,1.07
2023-01-10T00:59:29.443Z,1.40
2023-01-10T01:01:56.190Z,1.53
2023-01-10T01:04:23.133Z,1.50
2023-01-10T01:06:50.767Z,2.00
2023-01-10T01:09:17.904Z,1.70
2023-01-10T01:11:44.696Z,2.00
2023-01-10T01:14:11.411Z,1.90
2023-01-10T01:16:38.209Z,2.10
2023-01-10T01:19:04.951Z,2.50
2023-01-10T01:21:31.778Z,1.90
2023-01-10T01:23:58.472Z,1.77
2023-01-10T01:26:25.557Z,2.10
2023-01-10T01:28:52.698Z,2.17
2023-01-10T01:31:19.500Z,1.93
2023-01-10T01:33:46.503Z,1.80
2023-01-10T01:36:13.652Z,1.50
2023-01-10T01:38:41.915Z,2.00
2023-01-10T01:41:28.775Z,2.17
2023-01-10T01:44:07.787Z,2.13
2023-01-10T01:46:38.443Z,2.10
2023-01-10T01:49:13.412Z,2.30
2023-01-10T01:51:40.255Z,1.80
2023-01-10T01:54:11.937Z,1.90
2023-01-10T01:56:42.818Z,1.90
2023-01-10T01:59:20.444Z,2.13
2023-01-10T02:01:50.726Z,2.00
2023-01-10T02:04:22.258Z,2.83
2023-01-10T02:06:52.166Z,2.10
2023-01-10T02:09:39.827Z,2.13
2023-01-10T02:12:07.857Z,2.30
2023-01-10T02:14:36.005Z,2.90
2023-01-10T02:17:02.653Z,2.17
2023-01-10T02:19:44.657Z,3.20
2023-01-10T02:22:29.386Z,2.20
2023-01-10T02:24:58.718Z,2.00
2023-01-10T02:27:51.402Z,2.43
2023-01-10T02:30:27.198Z,2.43
2023-01-10T02:33:15.875Z,1.97
2023-01-10T02:36:25.196Z,2.43
2023-01-10T02:39:04.834Z,2.30
2023-01-10T02:41:34.279Z,1.93
2023-01-10T02:44:07.050Z,2.13
2023-01-10T02:46:35.357Z,2.17
2023-01-10T02:49:01.981Z,2.20
2023-01-10T02:51:30.665Z,2.50
2023-01-10T02:54:16.280Z,1.97
2023-01-10T02:56:56.392Z,2.20
2023-01-10T02:59:33.230Z,2.60
2023-01-10T03:02:02.877Z,2.30
2023-01-10T03:04:53.479Z,2.20
2023-01-10T03:07:33.529Z,2.30
2023-01-10T03:10:05.896Z,2.40
2023-01-10T03:12:40.207Z,2.30
2023-01-10T03:15:10.377Z,2.40
2023-01-10T03:17:39.220Z,2.43
2023-01-10T03:20:09.936Z,2.07
2023-01-10T03:22:39.593Z,2.03
2023-01-10T03:25:09.463Z,2.60
2023-01-10T03:27:55.771Z,2.27
2023-01-10T03:30:33.038Z,2.13
2023-01-10T03:33:00.214Z,2.10
2023-01-10T03:35:46.311Z,1.70
2023-01-10T03:38:26.101Z,2.50
2023-01-10T03:41:03.488Z,2.20
2023-01-10T03:44:02.997Z,2.40
2023-01-10T03:46:35.678Z,2.37
2023-01-10T03:49:04.571Z,1.87
2023-01-10T03:51:32.825Z,2.20
2023-01-10T03:54:01.625Z,2.20
2023-01-10T03:56:28.345Z,2.30
2023-01-10T03:58:55.676Z,2.27
2023-01-10T04:01:22.523Z,2.20
2023-01-10T04:03:49.367Z,1.87
2023-01-10T04:06:17.567Z,1.97
2023-01-10T04:08:44.497Z,2.20
2023-01-10T04:11:11.137Z,2.23
2023-01-10T04:13:37.800Z,2.43
2023-01-10T04:16:04.580Z,2.43
2023-01-10T04:18:31.230Z,2.17
2023-01-10T04:20:57.960Z,2.20
2023-01-10T04:23:24.605Z,2.33
2023-01-10T04:25:51.203Z,2.03
2023-01-10T04:28:17.968Z,2.00
2023-01-10T04:30:44.648Z,2.07
2023-01-10T04:33:12.524Z,2.07
2023-01-10T04:35:39.289Z,2.23
2023-01-10T04:38:05.994Z,2.30
2023-01-10T04:40:32.623Z,2.37
2023-01-10T04:42:59.263Z,1.90
2023-01-10T04:45:26.094Z,2.00
2023-01-10T04:47:55.973Z,2.47
2023-01-10T04:50:23.828Z,1.93
2023-01-10T04:52:50.442Z,2.57
2023-01-10T04:55:17.204Z,2.20
2023-01-10T04:57:44.399Z,2.50
2023-01-10T05:00:12.305Z,2.33
2023-01-10T05:02:43.963Z,2.17
2023-01-10T05:05:12.052Z,2.77
2023-01-10T05:07:39.362Z,2.57
2023-01-10T05:10:08.084Z,2.30
2023-01-10T05:12:34.831Z,2.37
2023-01-10T05:15:01.446Z,2.63
2023-01-10T05:17:28.134Z,2.53
2023-01-10T05:19:54.798Z,2.87
2023-01-10T05:22:21.532Z,2.80
2023-01-10T05:24:48.369Z,3.40
2023-01-10T05:27:15.004Z,2.47
2023-01-10T05:29:41.799Z,2.50
2023-01-10T05:32:08.789Z,3.17
2023-01-10T05:34:38.561Z,1.93
2023-01-10T05:37:05.328Z,2.80
2023-01-10T05:39:31.982Z,2.60
2023-01-10T05:41:58.672Z,2.00
2023-01-10T05:44:25.286Z,2.67
2023-01-10T05:46:51.941Z,2.83
2023-01-10T05:49:18.567Z,2.80
2023-01-10T05:51:45.320Z,2.70
2023-01-10T05:54:11.939Z,2.40
2023-01-10T05:56:38.796Z,3.17
2023-01-10T05:59:14.018Z,2.33
2023-01-10T06:01:50.519Z,2.80
2023-01-10T06:04:17.250Z,2.70
2023-01-10T06:06:43.922Z,2.63
2023-01-10T06:09:10.571Z,2.60
2023-01-10T06:11:38.867Z,2.77
2023-01-10T06:14:07.188Z,2.53
2023-01-10T06:16:33.948Z,2.67
2023-01-10T06:19:00.705Z,2.93
2023-01-10T06:21:27.457Z,2.60
2023-01-10T06:23:54.219Z,2.23
2023-01-10T06:26:20.900Z,2.70
2023-01-10T06:28:47.564Z,2.57
2023-01-10T06:31:14.985Z,2.30
2023-01-10T06:33:43.877Z,2.47
2023-01-10T06:36:11.295Z,2.50
2023-01-10T06:38:38.082Z,2.50
2023-01-10T06:41:12.840Z,2.63
2023-01-10T06:43:47.828Z,3.23
2023-01-10T06:46:19.358Z,2.87
2023-01-10T06:48:46.929Z,2.70
2023-01-10T06:51:15.501Z,3.20
2023-01-10T06:53:43.044Z,2.60
2023-01-10T06:56:10.305Z,2.53
2023-01-10T06:58:41.383Z,2.77
2023-01-10T07:01:14.904Z,2.53
2023-01-10T07:03:41.939Z,2.77
2023-01-10T07:06:10.208Z,3.00
2023-01-10T07:08:42.217Z,2.77
2023-01-10T07:11:09.809Z,2.27
2023-01-10T07:13:37.023Z,2.20
2023-01-10T07:16:04.558Z,2.40
2023-01-10T07:18:32.083Z,2.80
2023-01-10T07:20:58.737Z,2.37
2023-01-10T07:23:25.450Z,2.93
2023-01-10T07:25:52.732Z,2.73
2023-01-10T07:28:19.498Z,2.60
2023-01-10T07:30:46.139Z,2.70
2023-01-10T07:33:12.769Z,3.33
2023-01-10T07:35:39.612Z,2.83
2023-01-10T07:38:06.533Z,2.47
2023-01-10T07:40:33.197Z,2.40
2023-01-10T07:43:01.360Z,2.70
2023-01-10T07:45:29.948Z,2.40
2023-01-10T07:47:58.143Z,2.83
2023-01-10T07:50:25.651Z,2.73
2023-01-10T07:52:52.458Z,2.70
2023-01-10T07:55:19.100Z,2.33
2023-01-10T07:57:45.841Z,2.77
2023-01-10T08:00:13.236Z,2.70
2023-01-10T08:02:39.939Z,3.03
2023-01-10T08:05:07.362Z,3.03
2023-01-10T08:07:34.132Z,2.70
2023-01-10T08:10:00.747Z,2.90
2023-01-10T08:12:27.407Z,2.90
2023-01-10T08:14:54.298Z,2.30
2023-01-10T08:17:20.924Z,2.80
2023-01-10T08:19:47.549Z,2.93
2023-01-10T08:22:14.379Z,2.63
2023-01-10T08:24:41.034Z,2.80
2023-01-10T08:27:07.937Z,3.33
2023-01-10T08:29:34.672Z,3.10
2023-01-10T08:32:01.364Z,2.87
2023-01-10T08:34:28.147Z,2.83
2023-01-10T08:36:55.192Z,2.63
2023-01-10T08:39:22.833Z,2.57
2023-01-10T08:41:49.699Z,2.40
2023-01-10T08:44:16.624Z,3.10
2023-01-10T08:46:43.391Z,3.27
2023-01-10T08:49:10.069Z,3.40
2023-01-10T08:51:36.975Z,3.57
2023-01-10T08:54:03.983Z,3.07
2023-01-10T08:56:30.666Z,2.80
2023-01-10T08:58:57.355Z,2.87
2023-01-10T09:01:24.112Z,3.70
2023-01-10T09:03:50.818Z,3.03
2023-01-10T09:06:17.567Z,3.07
2023-01-10T09:08:44.222Z,2.70
2023-01-10T09:11:10.910Z,2.90
2023-01-10T09:13:37.633Z,3.43
2023-01-10T09:16:04.783Z,3.27
2023-01-10T09:18:31.754Z,3.50
2023-01-10T09:20:58.437Z,2.80
2023-01-10T09:23:25.394Z,2.70
2023-01-10T09:25:54.364Z,3.13
2023-01-10T09:28:22.283Z,3.17
2023-01-10T09:30:49.076Z,3.17
2023-01-10T09:33:16.350Z,2.60
2023-01-10T09:35:43.770Z,2.67
2023-01-10T09:38:14.666Z,3.77
2023-01-10T09:41:07.587Z,2.80
2023-01-10T09:43:36.983Z,2.70
2023-01-10T09:46:25.489Z,2.97
2023-01-10T09:49:08.952Z,2.60
2023-01-10T09:51:40.477Z,2.80
2023-01-10T09:54:13.455Z,2.80
2023-01-10T09:56:40.766Z,2.80
2023-01-10T09:59:21.174Z,2.97
2023-01-10T10:01:52.844Z,3.07
2023-01-10T10:04:29.419Z,2.70
2023-01-10T10:06:56.397Z,2.80
2023-01-10T10:09:30.050Z,4.50
2023-01-10T10:12:30.990Z,2.87
2023-01-10T10:15:04.031Z,2.97
2023-01-10T10:17:36.644Z,2.73
2023-01-10T10:20:23.115Z,4.03
2023-01-10T10:23:11.376Z,3.10
2023-01-10T10:25:50.330Z,2.60
2023-01-10T10:28:31.749Z,2.87
2023-01-10T10:31:14.970Z,2.53
2023-01-10T10:33:48.958Z,2.70
2023-01-10T10:36:23.862Z,3.30
2023-01-10T10:38:53.346Z,3.03
2023-01-10T10:41:37.098Z,3.03
2023-01-10T10:44:28.974Z,3.93
2023-01-10T10:46:58.835Z,3.70
2023-01-10T10:49:49.763Z,3.50
2023-01-10T10:52:30.678Z,3.10
2023-01-10T10:54:58.560Z,3.50
2023-01-10T10:57:28.688Z,4.10
2023-01-10T10:59:56.695Z,3.33
2023-01-10T11:02:29.485Z,3.20
2023-01-10T11:05:06.490Z,3.13
2023-01-10T11:07:36.974Z,2.87
2023-01-10T11:10:20.581Z,2.83
2023-01-10T11:12:51.309Z,3.53
2023-01-10T11:15:48.160Z,2.60
2023-01-10T11:18:17.590Z,3.00
2023-01-10T11:20:49.301Z,2.20
2023-01-10T11:23:30.241Z,2.37
2023-01-10T11:25:57.013Z,2.20
2023-01-10T11:28:31.453Z,2.20
2023-01-10T11:30:59.574Z,2.57
2023-01-10T11:33:30.739Z,2.33
2023-01-10T11:36:15.914Z,2.50
2023-01-10T11:38:42.528Z,2.50
2023-01-10T11:41:18.413Z,2.63
2023-01-10T11:43:45.237Z,2.30
2023-01-10T11:46:26.124Z,2.87
2023-01-10T11:49:08.340Z,2.73
2023-01-10T11:51:44.594Z,2.30
2023-01-10T11:54:16.406Z,2.40
2023-01-10T11:56:54.135Z,3.40
2023-01-10T11:59:20.930Z,2.27
2023-01-10T12:02:05.499Z,2.97
2023-01-10T12:04:39.553Z,2.63
2023-01-10T12:07:10.764Z,2.20
2023-01-10T12:09:43.632Z,3.30
2023-01-10T12:12:10.201Z,2.70
2023-01-10T12:14:36.833Z,2.80
2023-01-10T12:17:03.872Z,3.40
2023-01-10T12:19:30.867Z,3.33
2023-01-10T12:22:03.740Z,3.13
2023-01-10T12:24:35.874Z,3.33
2023-01-10T12:27:03.764Z,3.33
2023-01-10T12:29:40.609Z,3.17
2023-01-10T12:32:18.638Z,3.33
2023-01-10T12:34:50.419Z,3.50
2023-01-10T12:37:30.384Z,3.47
2023-01-10T12:40:10.307Z,3.90
2023-01-10T12:43:10.042Z,3.17
2023-01-10T12:46:02.924Z,3.40
2023-01-10T12:48:41.334Z,3.10
2023-01-10T12:51:15.160Z,2.87
2023-01-10T12:53:48.482Z,3.53
2023-01-10T12:56:18.751Z,3.30
2023-01-10T12:58:50.820Z,2.97
2023-01-10T13:01:22.364Z,3.07
2023-01-10T13:03:57.584Z,2.60
2023-01-10T13:06:32.029Z,2.90
2023-01-10T13:09:03.738Z,2.77
2023-01-10T13:11:37.200Z,2.77
2023-01-10T13:14:06.160Z,2.17
2023-01-10T13:16:50.321Z,3.13
2023-01-10T13:19:19.837Z,2.63
2023-01-10T13:21:47.257Z,2.93
2023-01-10T13:24:28.511Z,2.30
2023-01-10T13:26:58.379Z,2.37
2023-01-10T13:29:28.947Z,2.63
2023-01-10T13:32:01.527Z,2.40
2023-01-10T13:34:34.418Z,2.93
2023-01-10T13:37:12.456Z,2.27
2023-01-10T13:39:46.437Z,2.47
2023-01-10T13:42:44.995Z,2.77
2023-01-10T13:45:13.300Z,3.00
2023-01-10T13:47:40.041Z,2.40
2023-01-10T13:50:33.875Z,2.10
2023-01-10T13:53:12.692Z,2.23
2023-01-10T13:55:39.323Z,2.57
2023-01-10T13:58:19.836Z,2.20
2023-01-10T14:01:09.429Z,2.07
2023-01-10T14:03:59.161Z,2.27
2023-01-10T14:06:28.926Z,1.90
2023-01-10T14:09:03.648Z,2.17
2023-01-10T14:11:45.503Z,2.40
2023-01-10T14:14:23.979Z,2.50
2023-01-10T14:16:56.712Z,2.57
2023-01-10T14:19:34.038Z,2.13
2023-01-10T14:22:03.050Z,2.70
2023-01-10T14:24:40.116Z,2.10
2023-01-10T14:27:13.343Z,3.70
2023-01-10T14:29:47.777Z,2.33
2023-01-10T14:32:43.989Z,2.13
2023-01-10T14:35:17.444Z,2.67
2023-01-10T14:37:50.343Z,2.57
2023-01-10T14:40:29.025Z,2.50
2023-01-10T14:43:00.007Z,2.50
2023-01-10T14:46:08.615Z,2.57
2023-01-10T14:48:51.598Z,2.47
2023-01-10T14:51:23.628Z,2.10
2023-01-10T14:54:02.576Z,1.97
2023-01-10T14:56:49.577Z,2.00
2023-01-10T14:59:36.899Z,2.53
2023-01-10T15:02:14.807Z,2.47
2023-01-10T15:04:53.055Z,2.30
2023-01-10T15:07:22.821Z,2.07
2023-01-10T15:09:51.621Z,2.53
2023-01-10T15:12:20.423Z,2.17
2023-01-10T15:14:50.130Z,2.10
2023-01-10T15:17:22.459Z,2.53
2023-01-10T15:19:52.327Z,2.27
2023-01-10T15:22:29.743Z,1.83
2023-01-10T15:25:25.522Z,2.03
2023-01-10T15:27:53.052Z,1.93
2023-01-10T15:30:29.550Z,2.07
2023-01-10T15:33:04.603Z,1.93
2023-01-10T15:35:36.749Z,1.77
2023-01-10T15:38:11.897Z,2.53
2023-01-10T15:40:39.912Z,2.33
2023-01-10T15:43:18.473Z,2.73
2023-01-10T15:45:46.862Z,2.40
2023-01-10T15:48:28.902Z,2.30
2023-01-10T15:51:11.665Z,2.40
2023-01-10T15:54:03.451Z,1.87
2023-01-10T15:56:38.164Z,2.43
2023-01-10T15:59:19.384Z,2.10
2023-01-10T16:01:57.713Z,1.80
2023-01-10T16:04:24.980Z,2.00
2023-01-10T16:07:05.816Z,2.57
2023-01-10T16:09:32.684Z,2.67
2023-01-10T16:12:18.292Z,2.40
2023-01-10T16:14:45.032Z,2.10
2023-01-10T16:17:12.520Z,1.93
2023-01-10T16:19:39.280Z,2.00
2023-01-10T16:22:06.182Z,1.70
2023-01-10T16:24:35.849Z,2.40
2023-01-10T16:27:06.033Z,2.17
2023-01-10T16:29:33.783Z,1.93
2023-01-10T16:32:00.522Z,2.10
2023-01-10T16:34:27.275Z,1.97
2023-01-10T16:36:53.915Z,2.30
2023-01-10T16:39:23.353Z,2.30
2023-01-10T16:42:08.865Z,2.67
2023-01-10T16:44:35.955Z,2.07
2023-01-10T16:47:06.635Z,2.40
2023-01-10T16:49:33.587Z,2.07
2023-01-10T16:52:00.425Z,2.10
2023-01-10T16:54:28.201Z,2.30
2023-01-10T16:56:55.404Z,1.90
2023-01-10T16:59:22.104Z,2.00
2023-01-10T17:01:55.287Z,2.37
2023-01-10T17:04:35.473Z,2.00
2023-01-10T17:07:02.319Z,2.67
2023-01-10T17:09:31.025Z,2.53
2023-01-10T17:12:04.340Z,2.07
2023-01-10T17:14:33.935Z,2.83
2023-01-10T17:17:03.147Z,2.37
2023-01-10T17:19:30.164Z,2.00
2023-01-10T17:21:56.840Z,1.93
2023-01-10T17:24:23.640Z,2.03
2023-01-10T17:26:50.543Z,2.30
2023-01-10T17:29:17.255Z,2.53
2023-01-10T17:31:43.938Z,1.93
2023-01-10T17:34:10.576Z,2.60
2023-01-10T17:36:39.497Z,2.37
2023-01-10T17:39:06.949Z,2.43
2023-01-10T17:41:34.393Z,2.30
2023-01-10T17:44:01.626Z,2.70
2023-01-10T17:46:29.601Z,2.00
2023-01-10T17:48:56.548Z,2.17
2023-01-10T17:51:24.671Z,1.97
2023-01-10T17:53:54.048Z,2.23
2023-01-10T17:56:20.952Z,1.70
2023-01-10T17:58:47.776Z,2.43
2023-01-10T18:01:25.172Z,2.00
2023-01-10T18:03:52.970Z,2.20
2023-01-10T18:06:24.053Z,2.50
2023-01-10T18:08:51.601Z,1.80
2023-01-10T18:11:18.244Z,2.43
2023-01-10T18:13:44.963Z,1.90
2023-01-10T18:16:11.597Z,1.97
2023-01-10T18:18:38.984Z,2.23
2023-01-10T18:21:12.905Z,1.63
2023-01-10T18:23:39.700Z,1.70
2023-01-10T18:26:09.375Z,2.23
2023-01-10T18:28:42.769Z,1.73
2023-01-10T18:31:18.527Z,1.90
2023-01-10T18:33:46.784Z,1.83
2023-01-10T18:36:19.508Z,2.20
2023-01-10T18:38:46.414Z,2.13
2023-01-10T18:41:13.943Z,2.13
2023-01-10T18:43:40.721Z,2.13
2023-01-10T18:46:14.037Z,1.63
2023-01-10T18:48:41.068Z,1.73
2023-01-10T18:51:10.019Z,1.87
2023-01-10T18:53:36.814Z,1.60
2023-01-10T18:56:04.868Z,2.67
2023-01-10T18:58:34.670Z,1.87
2023-01-10T19:01:16.357Z,1.77
2023-01-10T19:03:44.699Z,1.40
2023-01-10T19:06:15.983Z,1.50
2023-01-10T19:08:43.836Z,1.93
2023-01-10T19:11:16.572Z,1.57
2023-01-10T19:13:48.032Z,1.60
2023-01-10T19:16:26.817Z,1.60
2023-01-10T19:19:08.990Z,1.43
2023-01-10T19:21:38.023Z,1.70
2023-01-10T19:24:08.396Z,1.37
2023-01-10T19:26:35.090Z,1.90
2023-01-10T19:29:04.868Z,1.67
2023-01-10T19:31:31.981Z,1.10
2023-01-10T19:34:00.063Z,1.40
2023-01-10T19:36:27.388Z,1.50
2023-01-10T19:38:58.531Z,1.43
2023-01-10T19:41:26.642Z,1.10
2023-01-10T19:43:58.871Z,1.83
2023-01-10T19:46:26.207Z,1.20
2023-01-10T19:48:55.867Z,1.50
2023-01-10T19:51:22.840Z,1.67
2023-01-10T19:53:49.850Z,1.40
2023-01-10T19:56:21.736Z,1.43
2023-01-10T19:58:49.645Z,1.43
2023-01-10T20:01:22.775Z,1.30
2023-01-10T20:03:49.942Z,1.73
2023-01-10T20:06:20.750Z,1.87
2023-01-10T20:08:48.686Z,1.23
2023-01-10T20:11:16.390Z,1.60
2023-01-10T20:13:45.085Z,1.97
2023-01-10T20:16:13.750Z,1.60
2023-01-10T20:18:41.531Z,1.60
2023-01-10T20:21:10.488Z,1.70
2023-01-10T20:23:38.900Z,1.50
2023-01-10T20:26:10.295Z,1.60
2023-01-10T20:28:37.832Z,1.80
2023-01-10T20:31:05.309Z,1.70
2023-01-10T20:33:34.504Z,1.57
2023-01-10T20:36:04.304Z,1.80
2023-01-10T20:38:32.842Z,1.87
2023-01-10T20:41:03.191Z,1.80
2023-01-10T20:43:30.004Z,1.90
2023-01-10T20:45:56.775Z,1.80
2023-01-10T20:48:23.621Z,1.77
2023-01-10T20:50:50.379Z,2.10
2023-01-10T20:53:17.283Z,1.60
2023-01-10T20:55:46.846Z,1.83
2023-01-10T20:58:17.567Z,2.10
2023-01-10T21:00:44.408Z,2.33
2023-01-10T21:03:11.234Z,1.87
2023-01-10T21:05:38.834Z,1.83
2023-01-10T21:08:05.525Z,2.20
2023-01-10T21:10:32.183Z,1.97
2023-01-10T21:12:58.849Z,2.23
2023-01-10T21:15:25.454Z,2.07
2023-01-10T21:17:53.062Z,1.70
2023-01-10T21:20:19.773Z,1.80
2023-01-10T21:22:46.679Z,1.83
2023-01-10T21:25:13.504Z,1.90
2023-01-10T21:27:40.229Z,1.67
2023-01-10T21:30:09.065Z,2.10
2023-01-10T21:32:35.834Z,1.60
2023-01-10T21:35:02.499Z,2.07
2023-01-10T21:37:29.254Z,1.80
2023-01-10T21:39:56.116Z,2.00
2023-01-10T21:42:34.910Z,2.00
2023-01-10T21:45:02.168Z,1.70
2023-01-10T21:47:28.901Z,1.80
2023-01-10T21:49:55.603Z,1.87
2023-01-10T21:52:22.377Z,1.73
2023-01-10T21:54:49.236Z,2.20
2023-01-10T21:57:21.715Z,2.07
2023-01-10T21:59:52.493Z,1.70
2023-01-10T22:02:21.214Z,1.70
2023-01-10T22:04:50.649Z,2.57
2023-01-10T22:07:21.786Z,2.20
2023-01-10T22:09:51.284Z,2.10
2023-01-10T22:12:18.896Z,2.47
2023-01-10T22:14:46.352Z,1.90
2023-01-10T22:17:14.180Z,2.13
2023-01-10T22:19:41.060Z,2.07
2023-01-10T22:22:08.494Z,1.80
2023-01-10T22:24:35.468Z,1.80
2023-01-10T22:27:02.817Z,1.80
2023-01-10T22:29:29.476Z,1.83
2023-01-10T22:31:56.436Z,1.67
2023-01-10T22:34:24.156Z,1.80
2023-01-10T22:36:50.982Z,2.30
2023-01-10T22:39:17.665Z,2.13
2023-01-10T22:41:44.366Z,2.03
2023-01-10T22:44:19.216Z,2.20
2023-01-10T22:46:46.837Z,1.83
2023-01-10T22:49:13.457Z,1.70
2023-01-10T22:51:40.246Z,1.67
2023-01-10T22:54:07.547Z,1.50
2023-01-10T22:56:34.832Z,1.90
2023-01-10T22:59:01.517Z,1.83
2023-01-10T23:01:28.244Z,2.30
2023-01-10T23:03:54.977Z,2.37
2023-01-10T23:06:21.849Z,1.83
2023-01-10T23:08:48.558Z,2.00
2023-01-10T23:11:17.147Z,1.70
2023-01-10T23:13:45.439Z,1.80
2023-01-10T23:16:15.135Z,1.70
2023-01-10T23:18:41.953Z,1.73
2023-01-10T23:21:09.411Z,2.07
2023-01-10T23:23:36.662Z,1.80
2023-01-10T23:26:05.807Z,2.10
2023-01-10T23:28:35.782Z,1.90
2023-01-10T23:31:03.530Z,2.43
2023-01-10T23:33:30.532Z,2.07
2023-01-10T23:35:57.252Z,2.03
2023-01-10T23:38:24.450Z,1.93
2023-01-10T23:40:51.267Z,2.20
2023-01-10T23:43:18.163Z,2.30
2023-01-10T23:45:45.135Z,2.17
2023-01-10T23:48:12.714Z,2.10
2023-01-10T23:50:39.786Z,2.13
2023-01-10T23:53:06.909Z,2.00
2023-01-10T23:55:34.070Z,1.97
2023-01-10T23:58:13.651Z,2.30
